sensor_id;sensor_type;location;lat;lon;timestamp;temperature;humidity
32522;DHT22;18963;51.504;5.316;2022-11-13T00:00:21;4.40;99.90
32522;DHT22;18963;51.504;5.316;2022-11-13T00:02:47;4.30;99.90
32522;DHT22;18963;51.504;5.316;2022-11-13T00:05:12;4.30;99.90
32522;DHT22;18963;51.504;5.316;2022-11-13T00:07:38;4.30;99.90
32522;DHT22;18963;51.504;5.316;2022-11-13T00:10:03;4.30;99.90
32522;DHT22;18963;51.504;5.316;2022-11-13T00:12:29;4.40;99.90
32522;DHT22;18963;51.504;5.316;2022-11-13T00:14:55;4.50;99.90
32522;DHT22;18963;51.504;5.316;2022-11-13T00:17:20;4.60;99.90
32522;DHT22;18963;51.504;5.316;2022-11-13T00:19:46;4.60;99.90
32522;DHT22;18963;51.504;5.316;2022-11-13T00:22:11;4.50;99.90
32522;DHT22;18963;51.504;5.316;2022-11-13T00:24:37;4.50;99.90
32522;DHT22;18963;51.504;5.316;2022-11-13T00:27:02;4.40;99.90
32522;DHT22;18963;51.504;5.316;2022-11-13T00:29:28;4.30;99.90
32522;DHT22;18963;51.504;5.316;2022-11-13T00:31:53;4.10;99.90
32522;DHT22;18963;51.504;5.316;2022-11-13T00:34:19;4.00;99.90
32522;DHT22;18963;51.504;5.316;2022-11-13T00:36:44;4.00;99.90
32522;DHT22;18963;51.504;5.316;2022-11-13T00:39:10;3.90;99.90
32522;DHT22;18963;51.504;5.316;2022-11-13T00:41:38;3.90;99.90
32522;DHT22;18963;51.504;5.316;2022-11-13T00:44:03;3.80;99.90
32522;DHT22;18963;51.504;5.316;2022-11-13T00:46:29;3.80;99.90
32522;DHT22;18963;51.504;5.316;2022-11-13T00:48:55;3.70;99.90
32522;DHT22;18963;51.504;5.316;2022-11-13T00:51:20;3.70;99.90
32522;DHT22;18963;51.504;5.316;2022-11-13T00:53:46;3.60;99.90
32522;DHT22;18963;51.504;5.316;2022-11-13T00:56:11;3.50;99.90
32522;DHT22;18963;51.504;5.316;2022-11-13T00:58:37;3.50;99.90
32522;DHT22;18963;51.504;5.316;2022-11-13T01:01:10;3.40;99.90
32522;DHT22;18963;51.504;5.316;2022-11-13T01:03:36;3.50;99.90
32522;DHT22;18963;51.504;5.316;2022-11-13T01:06:08;3.50;99.90
32522;DHT22;18963;51.504;5.316;2022-11-13T01:08:33;3.60;99.90
32522;DHT22;18963;51.504;5.316;2022-11-13T01:10:59;3.50;99.90
32522;DHT22;18963;51.504;5.316;2022-11-13T01:13:24;3.50;99.90
32522;DHT22;18963;51.504;5.316;2022-11-13T01:15:50;3.40;99.90
32522;DHT22;18963;51.504;5.316;2022-11-13T01:18:15;3.40;99.90
32522;DHT22;18963;51.504;5.316;2022-11-13T01:20:41;3.40;99.90
32522;DHT22;18963;51.504;5.316;2022-11-13T01:23:06;3.30;99.90
32522;DHT22;18963;51.504;5.316;2022-11-13T01:25:32;3.20;99.90
32522;DHT22;18963;51.504;5.316;2022-11-13T01:27:57;3.20;99.90
32522;DHT22;18963;51.504;5.316;2022-11-13T01:30:23;3.10;99.90
32522;DHT22;18963;51.504;5.316;2022-11-13T01:32:48;3.00;99.90
32522;DHT22;18963;51.504;5.316;2022-11-13T01:35:14;2.90;99.90
32522;DHT22;18963;51.504;5.316;2022-11-13T01:37:39;2.90;99.90
32522;DHT22;18963;51.504;5.316;2022-11-13T01:40:05;2.80;99.90
32522;DHT22;18963;51.504;5.316;2022-11-13T01:42:31;2.80;99.90
32522;DHT22;18963;51.504;5.316;2022-11-13T01:44:58;2.80;99.90
32522;DHT22;18963;51.504;5.316;2022-11-13T01:47:25;2.70;99.90
32522;DHT22;18963;51.504;5.316;2022-11-13T01:49:52;2.70;99.90
32522;DHT22;18963;51.504;5.316;2022-11-13T01:52:20;2.80;99.90
32522;DHT22;18963;51.504;5.316;2022-11-13T01:54:50;2.80;99.90
32522;DHT22;18963;51.504;5.316;2022-11-13T01:57:17;2.80;99.90
32522;DHT22;18963;51.504;5.316;2022-11-13T01:59:45;2.90;99.90
32522;DHT22;18963;51.504;5.316;2022-11-13T02:02:12;3.10;99.90
32522;DHT22;18963;51.504;5.316;2022-11-13T02:04:37;3.20;99.90
32522;DHT22;18963;51.504;5.316;2022-11-13T02:07:04;3.20;99.90
32522;DHT22;18963;51.504;5.316;2022-11-13T02:09:41;3.30;99.90
32522;DHT22;18963;51.504;5.316;2022-11-13T02:12:11;3.30;99.90
32522;DHT22;18963;51.504;5.316;2022-11-13T02:14:38;3.30;99.90
32522;DHT22;18963;51.504;5.316;2022-11-13T02:17:05;3.40;99.90
32522;DHT22;18963;51.504;5.316;2022-11-13T02:19:33;3.40;99.90
32522;DHT22;18963;51.504;5.316;2022-11-13T02:24:44;3.40;99.90
32522;DHT22;18963;51.504;5.316;2022-11-13T02:27:16;3.40;99.90
32522;DHT22;18963;51.504;5.316;2022-11-13T02:29:43;3.40;99.90
32522;DHT22;18963;51.504;5.316;2022-11-13T02:32:08;3.40;99.90
32522;DHT22;18963;51.504;5.316;2022-11-13T02:34:33;3.40;99.90
32522;DHT22;18963;51.504;5.316;2022-11-13T02:36:59;3.40;99.90
32522;DHT22;18963;51.504;5.316;2022-11-13T02:39:24;3.40;99.90
32522;DHT22;18963;51.504;5.316;2022-11-13T02:41:50;3.40;99.90
32522;DHT22;18963;51.504;5.316;2022-11-13T02:44:15;3.30;99.90
32522;DHT22;18963;51.504;5.316;2022-11-13T02:46:41;3.30;99.90
32522;DHT22;18963;51.504;5.316;2022-11-13T02:49:06;3.20;99.90
32522;DHT22;18963;51.504;5.316;2022-11-13T02:51:32;3.30;99.90
32522;DHT22;18963;51.504;5.316;2022-11-13T02:53:57;3.30;99.90
32522;DHT22;18963;51.504;5.316;2022-11-13T02:56:23;3.20;99.90
32522;DHT22;18963;51.504;5.316;2022-11-13T02:58:48;3.10;99.90
32522;DHT22;18963;51.504;5.316;2022-11-13T03:01:14;3.10;99.90
32522;DHT22;18963;51.504;5.316;2022-11-13T03:03:39;3.00;99.90
32522;DHT22;18963;51.504;5.316;2022-11-13T03:06:05;3.00;99.90
32522;DHT22;18963;51.504;5.316;2022-11-13T03:08:30;3.00;99.90
32522;DHT22;18963;51.504;5.316;2022-11-13T03:10:56;3.00;99.90
32522;DHT22;18963;51.504;5.316;2022-11-13T03:13:21;3.00;99.90
32522;DHT22;18963;51.504;5.316;2022-11-13T03:15:47;3.00;99.90
32522;DHT22;18963;51.504;5.316;2022-11-13T03:18:12;3.00;99.90
32522;DHT22;18963;51.504;5.316;2022-11-13T03:20:39;3.00;99.90
32522;DHT22;18963;51.504;5.316;2022-11-13T03:23:05;3.10;99.90
32522;DHT22;18963;51.504;5.316;2022-11-13T03:25:31;3.10;99.90
32522;DHT22;18963;51.504;5.316;2022-11-13T03:27:57;3.30;99.90
32522;DHT22;18963;51.504;5.316;2022-11-13T03:30:22;3.40;99.90
32522;DHT22;18963;51.504;5.316;2022-11-13T03:32:51;3.60;99.90
32522;DHT22;18963;51.504;5.316;2022-11-13T03:35:17;3.80;99.90
32522;DHT22;18963;51.504;5.316;2022-11-13T03:37:42;3.90;99.90
32522;DHT22;18963;51.504;5.316;2022-11-13T03:40:08;4.10;99.90
32522;DHT22;18963;51.504;5.316;2022-11-13T03:42:33;4.20;99.90
32522;DHT22;18963;51.504;5.316;2022-11-13T03:44:59;4.40;99.90
32522;DHT22;18963;51.504;5.316;2022-11-13T03:47:24;4.60;99.90
32522;DHT22;18963;51.504;5.316;2022-11-13T03:49:50;4.80;99.90
32522;DHT22;18963;51.504;5.316;2022-11-13T03:52:15;5.00;99.90
32522;DHT22;18963;51.504;5.316;2022-11-13T03:54:41;5.10;99.90
32522;DHT22;18963;51.504;5.316;2022-11-13T03:57:06;5.20;99.90
32522;DHT22;18963;51.504;5.316;2022-11-13T03:59:32;5.30;99.90
32522;DHT22;18963;51.504;5.316;2022-11-13T04:01:57;5.40;99.90
32522;DHT22;18963;51.504;5.316;2022-11-13T04:04:22;5.50;99.90
32522;DHT22;18963;51.504;5.316;2022-11-13T04:06:48;5.60;99.90
32522;DHT22;18963;51.504;5.316;2022-11-13T04:09:13;5.60;99.90
32522;DHT22;18963;51.504;5.316;2022-11-13T04:11:39;5.70;99.90
32522;DHT22;18963;51.504;5.316;2022-11-13T04:14:04;5.80;99.90
32522;DHT22;18963;51.504;5.316;2022-11-13T04:16:30;5.90;99.90
32522;DHT22;18963;51.504;5.316;2022-11-13T04:18:55;6.00;99.90
32522;DHT22;18963;51.504;5.316;2022-11-13T04:21:21;6.00;99.90
32522;DHT22;18963;51.504;5.316;2022-11-13T04:23:46;6.10;99.90
32522;DHT22;18963;51.504;5.316;2022-11-13T04:26:12;6.10;99.90
32522;DHT22;18963;51.504;5.316;2022-11-13T04:28:37;6.10;99.90
32522;DHT22;18963;51.504;5.316;2022-11-13T04:31:03;6.20;99.90
32522;DHT22;18963;51.504;5.316;2022-11-13T04:33:28;6.20;99.90
32522;DHT22;18963;51.504;5.316;2022-11-13T04:35:54;6.20;99.90
32522;DHT22;18963;51.504;5.316;2022-11-13T04:38:19;6.20;99.90
32522;DHT22;18963;51.504;5.316;2022-11-13T04:40:47;6.20;99.90
32522;DHT22;18963;51.504;5.316;2022-11-13T04:43:13;6.20;99.90
32522;DHT22;18963;51.504;5.316;2022-11-13T04:45:38;6.20;99.90
32522;DHT22;18963;51.504;5.316;2022-11-13T04:48:04;6.20;99.90
32522;DHT22;18963;51.504;5.316;2022-11-13T04:50:29;6.20;99.90
32522;DHT22;18963;51.504;5.316;2022-11-13T04:52:55;6.20;99.90
32522;DHT22;18963;51.504;5.316;2022-11-13T04:55:20;6.20;99.90
32522;DHT22;18963;51.504;5.316;2022-11-13T04:57:46;6.10;99.90
32522;DHT22;18963;51.504;5.316;2022-11-13T05:00:11;6.00;99.90
32522;DHT22;18963;51.504;5.316;2022-11-13T05:02:37;6.00;99.90
32522;DHT22;18963;51.504;5.316;2022-11-13T05:05:02;5.90;99.90
32522;DHT22;18963;51.504;5.316;2022-11-13T05:07:28;5.90;99.90
32522;DHT22;18963;51.504;5.316;2022-11-13T05:09:54;5.80;99.90
32522;DHT22;18963;51.504;5.316;2022-11-13T05:12:19;5.80;99.90
32522;DHT22;18963;51.504;5.316;2022-11-13T05:14:45;5.70;99.90
32522;DHT22;18963;51.504;5.316;2022-11-13T05:17:11;5.60;99.90
32522;DHT22;18963;51.504;5.316;2022-11-13T05:19:36;5.50;99.90
32522;DHT22;18963;51.504;5.316;2022-11-13T05:22:02;5.50;99.90
32522;DHT22;18963;51.504;5.316;2022-11-13T05:24:28;5.40;99.90
32522;DHT22;18963;51.504;5.316;2022-11-13T05:26:54;5.30;99.90
32522;DHT22;18963;51.504;5.316;2022-11-13T05:29:19;5.20;99.90
32522;DHT22;18963;51.504;5.316;2022-11-13T05:31:45;5.10;99.90
32522;DHT22;18963;51.504;5.316;2022-11-13T05:34:11;5.00;99.90
32522;DHT22;18963;51.504;5.316;2022-11-13T05:36:36;4.90;99.90
32522;DHT22;18963;51.504;5.316;2022-11-13T05:39:02;4.80;99.90
32522;DHT22;18963;51.504;5.316;2022-11-13T05:41:28;4.70;99.90
32522;DHT22;18963;51.504;5.316;2022-11-13T05:43:53;4.50;99.90
32522;DHT22;18963;51.504;5.316;2022-11-13T05:48:45;4.30;99.90
32522;DHT22;18963;51.504;5.316;2022-11-13T05:51:15;4.20;99.90
32522;DHT22;18963;51.504;5.316;2022-11-13T05:53:41;4.10;99.90
32522;DHT22;18963;51.504;5.316;2022-11-13T05:56:08;4.00;99.90
32522;DHT22;18963;51.504;5.316;2022-11-13T05:58:34;4.00;99.90
32522;DHT22;18963;51.504;5.316;2022-11-13T06:01:42;4.00;99.90
32522;DHT22;18963;51.504;5.316;2022-11-13T06:03:48;3.90;99.90
32522;DHT22;18963;51.504;5.316;2022-11-13T06:06:16;3.90;99.90
32522;DHT22;18963;51.504;5.316;2022-11-13T06:08:42;3.90;99.90
32522;DHT22;18963;51.504;5.316;2022-11-13T06:11:08;3.90;99.90
32522;DHT22;18963;51.504;5.316;2022-11-13T06:13:34;3.90;99.90
32522;DHT22;18963;51.504;5.316;2022-11-13T06:16:04;3.90;99.90
32522;DHT22;18963;51.504;5.316;2022-11-13T06:18:30;3.90;99.90
32522;DHT22;18963;51.504;5.316;2022-11-13T06:20:59;3.90;99.90
32522;DHT22;18963;51.504;5.316;2022-11-13T06:23:25;3.80;99.90
32522;DHT22;18963;51.504;5.316;2022-11-13T06:25:50;3.80;99.90
32522;DHT22;18963;51.504;5.316;2022-11-13T06:28:16;3.70;99.90
32522;DHT22;18963;51.504;5.316;2022-11-13T06:30:41;3.60;99.90
32522;DHT22;18963;51.504;5.316;2022-11-13T06:33:06;3.60;99.90
32522;DHT22;18963;51.504;5.316;2022-11-13T06:35:32;3.50;99.90
32522;DHT22;18963;51.504;5.316;2022-11-13T06:37:58;3.50;99.90
32522;DHT22;18963;51.504;5.316;2022-11-13T06:40:23;3.50;99.90
32522;DHT22;18963;51.504;5.316;2022-11-13T06:42:49;3.50;99.90
32522;DHT22;18963;51.504;5.316;2022-11-13T06:45:14;3.50;99.90
32522;DHT22;18963;51.504;5.316;2022-11-13T06:47:40;3.50;99.90
32522;DHT22;18963;51.504;5.316;2022-11-13T06:50:05;3.40;99.90
32522;DHT22;18963;51.504;5.316;2022-11-13T06:52:31;3.40;99.90
32522;DHT22;18963;51.504;5.316;2022-11-13T06:54:57;3.40;99.90
32522;DHT22;18963;51.504;5.316;2022-11-13T06:57:22;3.40;99.90
32522;DHT22;18963;51.504;5.316;2022-11-13T06:59:48;3.40;99.90
32522;DHT22;18963;51.504;5.316;2022-11-13T07:02:13;3.50;99.90
32522;DHT22;18963;51.504;5.316;2022-11-13T07:04:39;3.50;99.90
32522;DHT22;18963;51.504;5.316;2022-11-13T07:07:04;3.60;99.90
32522;DHT22;18963;51.504;5.316;2022-11-13T07:09:30;3.60;99.90
32522;DHT22;18963;51.504;5.316;2022-11-13T07:11:55;3.60;99.90
32522;DHT22;18963;51.504;5.316;2022-11-13T07:14:21;3.60;99.90
32522;DHT22;18963;51.504;5.316;2022-11-13T07:16:46;3.60;99.90
32522;DHT22;18963;51.504;5.316;2022-11-13T07:19:12;3.70;99.90
32522;DHT22;18963;51.504;5.316;2022-11-13T07:21:37;3.80;99.90
32522;DHT22;18963;51.504;5.316;2022-11-13T07:24:03;3.90;99.90
32522;DHT22;18963;51.504;5.316;2022-11-13T07:26:28;4.10;99.90
32522;DHT22;18963;51.504;5.316;2022-11-13T07:28:54;4.10;99.90
32522;DHT22;18963;51.504;5.316;2022-11-13T07:31:19;4.20;99.90
32522;DHT22;18963;51.504;5.316;2022-11-13T07:33:46;4.20;99.90
32522;DHT22;18963;51.504;5.316;2022-11-13T07:36:12;4.30;99.90
32522;DHT22;18963;51.504;5.316;2022-11-13T07:38:38;4.30;99.90
32522;DHT22;18963;51.504;5.316;2022-11-13T07:41:03;4.40;99.90
32522;DHT22;18963;51.504;5.316;2022-11-13T07:43:29;4.50;99.90
32522;DHT22;18963;51.504;5.316;2022-11-13T07:45:56;4.60;99.90
32522;DHT22;18963;51.504;5.316;2022-11-13T07:48:22;4.60;99.90
32522;DHT22;18963;51.504;5.316;2022-11-13T07:50:48;4.70;99.90
32522;DHT22;18963;51.504;5.316;2022-11-13T07:53:13;4.90;99.90
32522;DHT22;18963;51.504;5.316;2022-11-13T07:55:39;5.00;99.90
32522;DHT22;18963;51.504;5.316;2022-11-13T07:58:04;5.20;99.90
32522;DHT22;18963;51.504;5.316;2022-11-13T08:00:31;5.30;99.90
32522;DHT22;18963;51.504;5.316;2022-11-13T08:02:57;5.50;99.90
32522;DHT22;18963;51.504;5.316;2022-11-13T08:05:23;5.70;99.90
32522;DHT22;18963;51.504;5.316;2022-11-13T08:07:49;5.80;99.90
32522;DHT22;18963;51.504;5.316;2022-11-13T08:10:15;5.90;99.90
32522;DHT22;18963;51.504;5.316;2022-11-13T08:12:41;6.10;99.90
32522;DHT22;18963;51.504;5.316;2022-11-13T08:15:06;6.30;99.90
32522;DHT22;18963;51.504;5.316;2022-11-13T08:17:32;6.40;99.90
32522;DHT22;18963;51.504;5.316;2022-11-13T08:19:57;6.60;99.90
32522;DHT22;18963;51.504;5.316;2022-11-13T08:22:23;6.80;99.90
32522;DHT22;18963;51.504;5.316;2022-11-13T08:24:48;7.00;99.90
32522;DHT22;18963;51.504;5.316;2022-11-13T08:27:14;7.20;99.90
32522;DHT22;18963;51.504;5.316;2022-11-13T08:29:42;7.40;99.90
32522;DHT22;18963;51.504;5.316;2022-11-13T08:32:12;7.60;99.90
32522;DHT22;18963;51.504;5.316;2022-11-13T08:34:38;7.80;99.90
32522;DHT22;18963;51.504;5.316;2022-11-13T08:37:03;7.90;99.90
32522;DHT22;18963;51.504;5.316;2022-11-13T08:39:29;8.10;99.90
32522;DHT22;18963;51.504;5.316;2022-11-13T08:41:54;8.30;99.90
32522;DHT22;18963;51.504;5.316;2022-11-13T08:44:20;8.40;99.90
32522;DHT22;18963;51.504;5.316;2022-11-13T08:46:45;8.50;99.90
32522;DHT22;18963;51.504;5.316;2022-11-13T08:49:11;8.70;99.90
32522;DHT22;18963;51.504;5.316;2022-11-13T08:51:36;8.90;99.90
32522;DHT22;18963;51.504;5.316;2022-11-13T08:54:02;9.10;99.90
32522;DHT22;18963;51.504;5.316;2022-11-13T08:56:27;9.40;99.90
32522;DHT22;18963;51.504;5.316;2022-11-13T08:58:53;9.60;99.90
32522;DHT22;18963;51.504;5.316;2022-11-13T09:01:18;9.70;99.90
32522;DHT22;18963;51.504;5.316;2022-11-13T09:03:47;9.90;99.90
32522;DHT22;18963;51.504;5.316;2022-11-13T09:06:13;10.00;99.90
32522;DHT22;18963;51.504;5.316;2022-11-13T09:08:38;10.20;99.90
32522;DHT22;18963;51.504;5.316;2022-11-13T09:11:04;10.40;99.90
32522;DHT22;18963;51.504;5.316;2022-11-13T09:13:30;10.40;99.90
32522;DHT22;18963;51.504;5.316;2022-11-13T09:16:00;10.50;99.90
32522;DHT22;18963;51.504;5.316;2022-11-13T09:18:26;10.60;99.90
32522;DHT22;18963;51.504;5.316;2022-11-13T09:20:51;10.70;99.90
32522;DHT22;18963;51.504;5.316;2022-11-13T09:23:17;10.80;99.90
32522;DHT22;18963;51.504;5.316;2022-11-13T09:25:42;10.90;99.90
32522;DHT22;18963;51.504;5.316;2022-11-13T09:28:08;10.90;99.90
32522;DHT22;18963;51.504;5.316;2022-11-13T09:30:36;10.90;99.90
32522;DHT22;18963;51.504;5.316;2022-11-13T09:33:01;10.90;99.90
32522;DHT22;18963;51.504;5.316;2022-11-13T09:35:28;10.90;99.90
32522;DHT22;18963;51.504;5.316;2022-11-13T09:38:01;11.10;99.90
32522;DHT22;18963;51.504;5.316;2022-11-13T09:40:28;11.10;99.90
32522;DHT22;18963;51.504;5.316;2022-11-13T09:42:54;11.40;99.90
32522;DHT22;18963;51.504;5.316;2022-11-13T09:45:23;11.50;99.90
32522;DHT22;18963;51.504;5.316;2022-11-13T09:47:48;11.70;99.90
32522;DHT22;18963;51.504;5.316;2022-11-13T09:52:41;12.10;99.90
32522;DHT22;18963;51.504;5.316;2022-11-13T09:55:12;12.30;99.90
32522;DHT22;18963;51.504;5.316;2022-11-13T10:00:05;12.70;99.90
32522;DHT22;18963;51.504;5.316;2022-11-13T10:03:19;12.90;99.90
32522;DHT22;18963;51.504;5.316;2022-11-13T10:08:06;13.20;99.90
32522;DHT22;18963;51.504;5.316;2022-11-13T10:10:51;13.30;99.90
32522;DHT22;18963;51.504;5.316;2022-11-13T10:15:52;13.80;99.90
32522;DHT22;18963;51.504;5.316;2022-11-13T10:18:28;14.00;99.90
32522;DHT22;18963;51.504;5.316;2022-11-13T10:23:33;14.50;99.90
32522;DHT22;18963;51.504;5.316;2022-11-13T10:26:03;14.90;99.90
32522;DHT22;18963;51.504;5.316;2022-11-13T10:28:31;15.10;99.90
32522;DHT22;18963;51.504;5.316;2022-11-13T10:30:57;15.50;99.90
32522;DHT22;18963;51.504;5.316;2022-11-13T10:33:23;15.60;99.90
32522;DHT22;18963;51.504;5.316;2022-11-13T10:36:07;15.80;99.90
32522;DHT22;18963;51.504;5.316;2022-11-13T10:38:41;16.00;99.90
32522;DHT22;18963;51.504;5.316;2022-11-13T10:41:10;16.10;99.90
32522;DHT22;18963;51.504;5.316;2022-11-13T10:46:22;16.20;99.90
32522;DHT22;18963;51.504;5.316;2022-11-13T10:48:48;16.30;99.90
32522;DHT22;18963;51.504;5.316;2022-11-13T10:51:35;16.70;99.90
32522;DHT22;18963;51.504;5.316;2022-11-13T10:54:09;16.90;99.90
32522;DHT22;18963;51.504;5.316;2022-11-13T10:56:35;17.30;99.90
32522;DHT22;18963;51.504;5.316;2022-11-13T11:01:32;18.40;97.00
32522;DHT22;18963;51.504;5.316;2022-11-13T11:03:58;18.60;95.70
32522;DHT22;18963;51.504;5.316;2022-11-13T11:06:30;19.10;93.40
32522;DHT22;18963;51.504;5.316;2022-11-13T11:11:37;19.50;91.30
32522;DHT22;18963;51.504;5.316;2022-11-13T11:14:32;19.60;91.80
32522;DHT22;18963;51.504;5.316;2022-11-13T11:16:59;19.40;90.60
32522;DHT22;18963;51.504;5.316;2022-11-13T11:19:27;18.80;92.70
32522;DHT22;18963;51.504;5.316;2022-11-13T11:21:57;18.10;91.40
32522;DHT22;18963;51.504;5.316;2022-11-13T11:24:30;17.50;92.90
32522;DHT22;18963;51.504;5.316;2022-11-13T11:27:00;17.00;95.10
32522;DHT22;18963;51.504;5.316;2022-11-13T11:29:29;16.60;95.90
32522;DHT22;18963;51.504;5.316;2022-11-13T11:31:59;16.30;97.40
32522;DHT22;18963;51.504;5.316;2022-11-13T11:37:11;15.90;97.40
32522;DHT22;18963;51.504;5.316;2022-11-13T11:47:21;15.10;98.90
32522;DHT22;18963;51.504;5.316;2022-11-13T11:49:47;14.90;99.10
32522;DHT22;18963;51.504;5.316;2022-11-13T11:54:51;14.50;99.90
32522;DHT22;18963;51.504;5.316;2022-11-13T12:00:01;14.20;99.90
32522;DHT22;18963;51.504;5.316;2022-11-13T12:02:47;14.00;99.90
32522;DHT22;18963;51.504;5.316;2022-11-13T12:05:17;13.90;99.90
32522;DHT22;18963;51.504;5.316;2022-11-13T12:10:37;13.80;99.90
32522;DHT22;18963;51.504;5.316;2022-11-13T12:18:05;13.60;99.90
32522;DHT22;18963;51.504;5.316;2022-11-13T12:23:22;13.50;99.90
32522;DHT22;18963;51.504;5.316;2022-11-13T12:34:07;13.40;99.90
32522;DHT22;18963;51.504;5.316;2022-11-13T12:36:34;13.40;99.90
32522;DHT22;18963;51.504;5.316;2022-11-13T12:39:04;13.40;99.90
32522;DHT22;18963;51.504;5.316;2022-11-13T12:46:35;13.40;99.90
32522;DHT22;18963;51.504;5.316;2022-11-13T12:49:01;13.40;99.90
32522;DHT22;18963;51.504;5.316;2022-11-13T12:51:36;13.40;99.90
32522;DHT22;18963;51.504;5.316;2022-11-13T12:54:02;13.30;99.90
32522;DHT22;18963;51.504;5.316;2022-11-13T12:56:29;13.40;99.90
32522;DHT22;18963;51.504;5.316;2022-11-13T12:58:56;13.30;99.90
32522;DHT22;18963;51.504;5.316;2022-11-13T13:01:23;13.30;99.90
32522;DHT22;18963;51.504;5.316;2022-11-13T13:03:59;13.40;99.90
32522;DHT22;18963;51.504;5.316;2022-11-13T13:06:41;13.50;99.90
32522;DHT22;18963;51.504;5.316;2022-11-13T13:16:48;13.50;99.90
32522;DHT22;18963;51.504;5.316;2022-11-13T13:21:48;13.60;99.90
32522;DHT22;18963;51.504;5.316;2022-11-13T13:27:23;13.60;99.90
32522;DHT22;18963;51.504;5.316;2022-11-13T13:29:48;13.70;99.90
32522;DHT22;18963;51.504;5.316;2022-11-13T13:32:21;13.70;99.90
32522;DHT22;18963;51.504;5.316;2022-11-13T13:35:00;13.70;99.90
32522;DHT22;18963;51.504;5.316;2022-11-13T13:37:36;13.60;99.90
32522;DHT22;18963;51.504;5.316;2022-11-13T13:47:44;13.80;99.90
32522;DHT22;18963;51.504;5.316;2022-11-13T13:50:15;13.80;99.90
32522;DHT22;18963;51.504;5.316;2022-11-13T13:52:41;13.90;99.90
32522;DHT22;18963;51.504;5.316;2022-11-13T13:55:15;13.80;99.90
32522;DHT22;18963;51.504;5.316;2022-11-13T13:57:41;13.70;99.90
32522;DHT22;18963;51.504;5.316;2022-11-13T14:00:09;13.70;99.90
32522;DHT22;18963;51.504;5.316;2022-11-13T14:02:43;13.70;99.90
32522;DHT22;18963;51.504;5.316;2022-11-13T14:05:26;13.70;99.90
32522;DHT22;18963;51.504;5.316;2022-11-13T14:07:52;13.60;99.90
32522;DHT22;18963;51.504;5.316;2022-11-13T14:10:19;13.60;99.90
32522;DHT22;18963;51.504;5.316;2022-11-13T14:12:45;13.60;99.90
32522;DHT22;18963;51.504;5.316;2022-11-13T14:15:44;13.50;99.90
32522;DHT22;18963;51.504;5.316;2022-11-13T14:18:12;13.50;99.90
32522;DHT22;18963;51.504;5.316;2022-11-13T14:20:44;13.50;99.90
32522;DHT22;18963;51.504;5.316;2022-11-13T14:23:11;13.50;99.90
32522;DHT22;18963;51.504;5.316;2022-11-13T14:25:38;13.40;99.90
32522;DHT22;18963;51.504;5.316;2022-11-13T14:28:03;13.30;99.90
32522;DHT22;18963;51.504;5.316;2022-11-13T14:30:29;13.40;99.90
32522;DHT22;18963;51.504;5.316;2022-11-13T14:32:55;13.30;99.90
32522;DHT22;18963;51.504;5.316;2022-11-13T14:35:22;13.30;99.90
32522;DHT22;18963;51.504;5.316;2022-11-13T14:37:49;13.30;99.90
32522;DHT22;18963;51.504;5.316;2022-11-13T14:40:22;13.30;99.90
32522;DHT22;18963;51.504;5.316;2022-11-13T14:42:52;13.30;99.90
32522;DHT22;18963;51.504;5.316;2022-11-13T14:45:20;13.30;99.90
32522;DHT22;18963;51.504;5.316;2022-11-13T14:51:03;13.40;99.90
32522;DHT22;18963;51.504;5.316;2022-11-13T14:53:33;13.50;99.90
32522;DHT22;18963;51.504;5.316;2022-11-13T14:56:08;13.30;99.90
32522;DHT22;18963;51.504;5.316;2022-11-13T14:58:36;13.30;99.90
32522;DHT22;18963;51.504;5.316;2022-11-13T15:03:36;13.00;99.90
32522;DHT22;18963;51.504;5.316;2022-11-13T15:06:01;12.90;99.90
32522;DHT22;18963;51.504;5.316;2022-11-13T15:08:27;12.90;99.90
32522;DHT22;18963;51.504;5.316;2022-11-13T15:10:53;12.80;99.90
32522;DHT22;18963;51.504;5.316;2022-11-13T15:13:21;12.80;99.90
32522;DHT22;18963;51.504;5.316;2022-11-13T15:15:46;12.70;99.90
32522;DHT22;18963;51.504;5.316;2022-11-13T15:18:14;12.60;99.90
32522;DHT22;18963;51.504;5.316;2022-11-13T15:20:40;12.50;99.90
32522;DHT22;18963;51.504;5.316;2022-11-13T15:23:07;12.50;99.90
32522;DHT22;18963;51.504;5.316;2022-11-13T15:25:33;12.40;99.90
32522;DHT22;18963;51.504;5.316;2022-11-13T15:27:59;12.30;99.90
32522;DHT22;18963;51.504;5.316;2022-11-13T15:30:24;12.20;99.90
32522;DHT22;18963;51.504;5.316;2022-11-13T15:32:50;12.10;99.90
32522;DHT22;18963;51.504;5.316;2022-11-13T15:35:18;12.00;99.90
32522;DHT22;18963;51.504;5.316;2022-11-13T15:37:44;11.90;99.90
32522;DHT22;18963;51.504;5.316;2022-11-13T15:40:13;11.80;99.90
32522;DHT22;18963;51.504;5.316;2022-11-13T15:42:39;11.70;99.90
32522;DHT22;18963;51.504;5.316;2022-11-13T15:45:05;11.60;99.90
32522;DHT22;18963;51.504;5.316;2022-11-13T15:47:33;11.50;99.90
32522;DHT22;18963;51.504;5.316;2022-11-13T15:49:59;11.40;99.90
32522;DHT22;18963;51.504;5.316;2022-11-13T15:52:25;11.40;99.90
32522;DHT22;18963;51.504;5.316;2022-11-13T15:54:51;11.30;99.90
32522;DHT22;18963;51.504;5.316;2022-11-13T15:57:27;11.20;99.90
32522;DHT22;18963;51.504;5.316;2022-11-13T15:59:53;11.00;99.90
32522;DHT22;18963;51.504;5.316;2022-11-13T16:02:19;10.90;99.90
32522;DHT22;18963;51.504;5.316;2022-11-13T16:04:44;10.80;99.90
32522;DHT22;18963;51.504;5.316;2022-11-13T16:07:17;10.70;99.90
32522;DHT22;18963;51.504;5.316;2022-11-13T16:09:43;10.60;99.90
32522;DHT22;18963;51.504;5.316;2022-11-13T16:12:10;10.50;99.90
32522;DHT22;18963;51.504;5.316;2022-11-13T16:14:35;10.30;99.90
32522;DHT22;18963;51.504;5.316;2022-11-13T16:17:01;10.20;99.90
32522;DHT22;18963;51.504;5.316;2022-11-13T16:19:27;10.00;99.90
32522;DHT22;18963;51.504;5.316;2022-11-13T16:21:52;9.80;99.90
32522;DHT22;18963;51.504;5.316;2022-11-13T16:24:18;9.60;99.90
32522;DHT22;18963;51.504;5.316;2022-11-13T16:26:46;9.30;99.90
32522;DHT22;18963;51.504;5.316;2022-11-13T16:29:15;9.10;99.90
32522;DHT22;18963;51.504;5.316;2022-11-13T16:31:42;8.90;99.90
32522;DHT22;18963;51.504;5.316;2022-11-13T16:34:08;8.80;99.90
32522;DHT22;18963;51.504;5.316;2022-11-13T16:36:33;8.70;99.90
32522;DHT22;18963;51.504;5.316;2022-11-13T16:38:59;8.50;99.90
32522;DHT22;18963;51.504;5.316;2022-11-13T16:41:24;8.40;99.90
32522;DHT22;18963;51.504;5.316;2022-11-13T16:43:50;8.30;99.90
32522;DHT22;18963;51.504;5.316;2022-11-13T16:48:50;8.10;99.90
32522;DHT22;18963;51.504;5.316;2022-11-13T16:51:16;8.00;99.90
32522;DHT22;18963;51.504;5.316;2022-11-13T16:53:41;7.90;99.90
32522;DHT22;18963;51.504;5.316;2022-11-13T16:56:10;7.80;99.90
32522;DHT22;18963;51.504;5.316;2022-11-13T16:58:37;7.70;99.90
32522;DHT22;18963;51.504;5.316;2022-11-13T17:01:03;7.60;99.90
32522;DHT22;18963;51.504;5.316;2022-11-13T17:03:29;7.50;99.90
32522;DHT22;18963;51.504;5.316;2022-11-13T17:05:54;7.40;99.90
32522;DHT22;18963;51.504;5.316;2022-11-13T17:08:19;7.40;99.90
32522;DHT22;18963;51.504;5.316;2022-11-13T17:10:54;7.30;99.90
32522;DHT22;18963;51.504;5.316;2022-11-13T17:13:19;7.30;99.90